createdAt,value
2022-11-26T00:01:22.827Z,2.27
2022-11-26T00:03:52.207Z,1.87
2022-11-26T00:06:36.276Z,2.57
2022-11-26T00:09:07.364Z,2.17
2022-11-26T00:11:34.645Z,3.37
2022-11-26T00:14:01.634Z,2.17
2022-11-26T00:16:30.689Z,2.43
2022-11-26T00:18:57.638Z,2.57
2022-11-26T00:21:26.906Z,3.73
2022-11-26T00:23:55.305Z,2.97
2022-11-26T00:26:24.898Z,2.97
2022-11-26T00:29:00.778Z,2.23
2022-11-26T00:31:29.578Z,3.10
2022-11-26T00:33:56.770Z,2.97
2022-11-26T00:36:32.245Z,2.47
2022-11-26T00:39:07.843Z,0.93
2022-11-26T00:41:41.112Z,2.20
2022-11-26T00:44:22.991Z,2.80
2022-11-26T00:46:50.917Z,2.00
2022-11-26T00:49:18.367Z,3.07
2022-11-26T00:51:47.217Z,2.90
2022-11-26T00:54:18.669Z,1.37
2022-11-26T00:56:48.274Z,1.23
2022-11-26T00:59:21.991Z,2.87
2022-11-26T01:01:50.198Z,2.13
2022-11-26T01:04:17.250Z,2.87
2022-11-26T01:06:46.023Z,2.83
2022-11-26T01:09:23.034Z,2.87
2022-11-26T01:11:54.059Z,2.27
2022-11-26T01:14:23.211Z,1.50
2022-11-26T01:16:53.012Z,1.57
2022-11-26T01:19:19.930Z,2.10
2022-11-26T01:21:47.052Z,2.80
2022-11-26T01:24:14.015Z,2.93
2022-11-26T01:26:44.161Z,1.47
2022-11-26T01:29:19.581Z,1.77
2022-11-26T01:31:47.754Z,2.57
2022-11-26T01:34:15.400Z,2.67
2022-11-26T01:36:43.172Z,1.53
2022-11-26T01:39:10.023Z,2.17
2022-11-26T01:41:49.825Z,1.63
2022-11-26T01:44:34.966Z,1.57
2022-11-26T01:47:20.314Z,2.63
2022-11-26T01:50:28.129Z,1.17
2022-11-26T01:53:14.410Z,1.23
2022-11-26T01:55:58.807Z,2.10
2022-11-26T01:58:42.294Z,1.97
2022-11-26T02:01:10.107Z,1.73
2022-11-26T02:04:07.927Z,1.30
2022-11-26T02:06:35.736Z,1.87
2022-11-26T02:09:07.912Z,0.77
2022-11-26T02:11:35.104Z,1.57
2022-11-26T02:14:12.076Z,1.63
2022-11-26T02:17:03.218Z,2.47
2022-11-26T02:19:39.123Z,0.77
2022-11-26T02:22:30.749Z,1.50
2022-11-26T02:25:20.733Z,1.73
2022-11-26T02:28:39.263Z,1.37
2022-11-26T02:31:14.442Z,2.27
2022-11-26T02:34:15.081Z,1.97
2022-11-26T02:37:05.981Z,1.50
2022-11-26T02:39:32.993Z,1.53
2022-11-26T02:42:04.110Z,2.67
2022-11-26T02:44:44.930Z,1.43
2022-11-26T02:47:17.886Z,1.13
2022-11-26T02:49:48.457Z,2.27
2022-11-26T02:52:18.163Z,1.73
2022-11-26T02:54:47.246Z,1.83
2022-11-26T02:57:18.662Z,2.93
2022-11-26T02:59:46.898Z,1.57
2022-11-26T03:02:26.498Z,1.70
2022-11-26T03:04:58.971Z,3.90
2022-11-26T03:07:30.218Z,2.67
2022-11-26T03:10:00.925Z,1.97
2022-11-26T03:12:29.381Z,0.43
2022-11-26T03:14:56.987Z,1.20
2022-11-26T03:17:23.964Z,1.63
2022-11-26T03:19:50.994Z,2.03
2022-11-26T03:22:18.279Z,1.10
2022-11-26T03:24:45.212Z,2.13
2022-11-26T03:27:12.189Z,1.23
2022-11-26T03:29:39.262Z,1.40
2022-11-26T03:32:07.107Z,2.77
2022-11-26T03:34:34.260Z,1.67
2022-11-26T03:37:02.011Z,1.90
2022-11-26T03:39:29.003Z,2.17
2022-11-26T03:41:56.078Z,1.37
2022-11-26T03:44:23.108Z,1.50
2022-11-26T03:46:50.148Z,0.93
2022-11-26T03:49:17.146Z,1.27
2022-11-26T03:51:44.224Z,1.67
2022-11-26T03:54:11.567Z,1.30
2022-11-26T03:56:38.510Z,1.83
2022-11-26T03:59:05.503Z,2.73
2022-11-26T04:01:32.502Z,2.60
2022-11-26T04:03:59.532Z,1.33
2022-11-26T04:06:26.530Z,2.63
2022-11-26T04:08:53.706Z,2.03
2022-11-26T04:11:20.844Z,3.03
2022-11-26T04:13:47.834Z,2.40
2022-11-26T04:16:15.016Z,2.83
2022-11-26T04:18:42.173Z,2.60
2022-11-26T04:21:11.281Z,2.70
2022-11-26T04:23:38.282Z,2.47
2022-11-26T04:26:05.880Z,3.00
2022-11-26T04:28:33.504Z,2.23
2022-11-26T04:31:00.619Z,1.13
2022-11-26T04:33:27.607Z,2.57
2022-11-26T04:35:54.842Z,1.40
2022-11-26T04:38:25.758Z,2.10
2022-11-26T04:40:54.187Z,1.20
2022-11-26T04:43:21.761Z,1.27
2022-11-26T04:45:48.793Z,1.53
2022-11-26T04:48:15.751Z,2.27
2022-11-26T04:50:46.138Z,1.80
2022-11-26T04:53:13.145Z,1.40
2022-11-26T04:55:40.230Z,2.37
2022-11-26T04:58:07.288Z,1.30
2022-11-26T05:00:34.401Z,1.63
2022-11-26T05:03:01.457Z,2.07
2022-11-26T05:05:28.671Z,1.23
2022-11-26T05:07:55.733Z,2.23
2022-11-26T05:10:22.762Z,3.40
2022-11-26T05:12:49.727Z,3.07
2022-11-26T05:15:16.903Z,2.30
2022-11-26T05:17:44.075Z,3.17
2022-11-26T05:20:12.103Z,2.07
2022-11-26T05:22:39.051Z,2.47
2022-11-26T05:25:06.395Z,3.00
2022-11-26T05:27:33.544Z,1.80
2022-11-26T05:30:00.509Z,1.37
2022-11-26T05:32:27.805Z,3.43
2022-11-26T05:34:59.862Z,2.70
2022-11-26T05:37:27.425Z,2.37
2022-11-26T05:39:54.440Z,1.47
2022-11-26T05:42:21.443Z,1.30
2022-11-26T05:44:48.497Z,2.77
2022-11-26T05:47:15.493Z,2.17
2022-11-26T05:49:42.524Z,2.27
2022-11-26T05:52:09.998Z,3.03
2022-11-26T05:54:37.301Z,3.67
2022-11-26T05:57:04.959Z,2.37
2022-11-26T05:59:31.928Z,1.03
2022-11-26T06:01:59.022Z,2.57
2022-11-26T06:04:26.018Z,1.63
2022-11-26T06:06:53.199Z,1.53
2022-11-26T06:09:21.392Z,3.27
2022-11-26T06:11:50.583Z,1.27
2022-11-26T06:14:18.477Z,1.83
2022-11-26T06:16:45.517Z,2.67
2022-11-26T06:19:13.110Z,2.60
2022-11-26T06:21:40.045Z,2.87
2022-11-26T06:24:07.318Z,2.27
2022-11-26T06:26:34.585Z,1.77
2022-11-26T06:29:01.837Z,2.07
2022-11-26T06:31:28.880Z,2.57
2022-11-26T06:33:56.562Z,3.30
2022-11-26T06:36:24.561Z,1.83
2022-11-26T06:38:51.623Z,2.30
2022-11-26T06:41:18.670Z,2.00
2022-11-26T06:43:45.740Z,1.50
2022-11-26T06:46:13.458Z,3.00
2022-11-26T06:48:40.962Z,1.70
2022-11-26T06:51:12.488Z,2.63
2022-11-26T06:53:40.586Z,1.93
2022-11-26T06:56:18.493Z,2.90
2022-11-26T06:58:48.899Z,1.53
2022-11-26T07:01:21.018Z,2.83
2022-11-26T07:03:48.285Z,3.10
2022-11-26T07:06:25.901Z,2.50
2022-11-26T07:08:56.018Z,3.70
2022-11-26T07:11:25.600Z,2.27
2022-11-26T07:13:53.293Z,2.10
2022-11-26T07:16:21.017Z,2.43
2022-11-26T07:18:59.264Z,3.77
2022-11-26T07:21:29.487Z,2.20
2022-11-26T07:23:56.566Z,3.70
2022-11-26T07:26:24.300Z,1.67
2022-11-26T07:28:51.320Z,3.47
2022-11-26T07:31:22.422Z,3.03
2022-11-26T07:33:50.778Z,2.83
2022-11-26T07:36:27.754Z,2.23
2022-11-26T07:38:57.093Z,4.13
2022-11-26T07:41:25.521Z,4.60
2022-11-26T07:43:52.995Z,2.23
2022-11-26T07:46:23.833Z,3.47
2022-11-26T07:48:51.365Z,4.23
2022-11-26T07:51:25.399Z,3.13
2022-11-26T07:53:53.906Z,4.40
2022-11-26T07:56:20.988Z,2.87
2022-11-26T07:58:48.445Z,3.60
2022-11-26T08:01:19.804Z,3.77
2022-11-26T08:03:49.854Z,3.33
2022-11-26T08:06:21.014Z,2.23
2022-11-26T08:08:48.256Z,3.70
2022-11-26T08:11:25.274Z,3.57
2022-11-26T08:14:02.317Z,2.40
2022-11-26T08:16:29.907Z,2.10
2022-11-26T08:19:00.107Z,2.77
2022-11-26T08:21:27.279Z,4.43
2022-11-26T08:23:54.808Z,2.33
2022-11-26T08:26:29.165Z,3.27
2022-11-26T08:29:01.137Z,3.00
2022-11-26T08:31:28.750Z,3.47
2022-11-26T08:34:01.039Z,2.93
2022-11-26T08:36:30.870Z,2.83
2022-11-26T08:38:59.642Z,3.27
2022-11-26T08:41:27.589Z,3.77
2022-11-26T08:44:11.417Z,2.40
2022-11-26T08:46:41.395Z,4.00
2022-11-26T08:49:14.974Z,3.57
2022-11-26T08:51:42.501Z,2.57
2022-11-26T08:54:10.299Z,3.17
2022-11-26T08:56:37.369Z,3.00
2022-11-26T08:59:04.648Z,2.90
2022-11-26T09:01:34.101Z,2.43
2022-11-26T09:04:03.631Z,2.90
2022-11-26T09:06:34.037Z,2.87
2022-11-26T09:09:14.161Z,3.23
2022-11-26T09:12:02.757Z,4.80
2022-11-26T09:14:37.408Z,2.93
2022-11-26T09:17:05.641Z,3.60
2022-11-26T09:19:33.824Z,2.53
2022-11-26T09:22:00.893Z,3.33
2022-11-26T09:24:28.104Z,2.27
2022-11-26T09:26:55.147Z,3.87
2022-11-26T09:29:23.787Z,3.67
2022-11-26T09:34:39.203Z,3.70
2022-11-26T09:37:06.727Z,4.50
2022-11-26T09:39:34.184Z,4.37
2022-11-26T09:42:08.315Z,4.40
2022-11-26T09:44:57.436Z,4.40
2022-11-26T09:47:31.305Z,4.10
2022-11-26T09:50:15.176Z,5.67
2022-11-26T09:52:50.334Z,5.17
2022-11-26T09:55:40.463Z,5.47
2022-11-26T09:58:45.378Z,3.90
2022-11-26T10:01:20.952Z,5.30
2022-11-26T10:03:48.677Z,3.67
2022-11-26T10:06:46.399Z,4.60
2022-11-26T10:09:49.174Z,4.87
2022-11-26T10:13:18.533Z,4.97
2022-11-26T10:16:02.436Z,4.57
2022-11-26T10:19:12.587Z,5.83
2022-11-26T10:21:58.959Z,3.43
2022-11-26T10:24:42.100Z,4.43
2022-11-26T10:27:20.050Z,4.77
2022-11-26T10:29:59.815Z,5.20
2022-11-26T10:32:38.046Z,3.80
2022-11-26T10:35:06.433Z,4.73
2022-11-26T10:37:33.458Z,3.90
2022-11-26T10:40:25.716Z,4.40
2022-11-26T10:43:03.240Z,5.33
2022-11-26T10:45:51.428Z,5.53
2022-11-26T10:48:27.344Z,4.53
2022-11-26T10:51:26.735Z,4.80
2022-11-26T10:54:01.038Z,6.53
2022-11-26T10:56:43.593Z,6.20
2022-11-26T10:59:45.286Z,4.47
2022-11-26T11:02:39.237Z,3.60
2022-11-26T11:05:10.017Z,5.40
2022-11-26T11:07:37.128Z,5.53
2022-11-26T11:10:10.399Z,4.53
2022-11-26T11:12:42.479Z,4.10
2022-11-26T11:15:26.269Z,4.30
2022-11-26T11:18:21.981Z,6.27
2022-11-26T11:21:03.203Z,4.30
2022-11-26T11:24:00.594Z,5.27
2022-11-26T11:26:26.247Z,5.70
2022-11-26T11:28:55.608Z,3.17
2022-11-26T11:31:26.685Z,5.63
2022-11-26T11:34:19.855Z,4.83
2022-11-26T11:37:04.103Z,5.40
2022-11-26T11:39:34.857Z,3.63
2022-11-26T11:42:06.918Z,3.83
2022-11-26T11:44:51.282Z,6.10
2022-11-26T11:47:37.410Z,4.83
2022-11-26T11:50:25.145Z,5.00
2022-11-26T11:53:35.495Z,4.87
2022-11-26T11:56:24.856Z,7.37
2022-11-26T11:59:10.093Z,5.90
2022-11-26T12:02:24.316Z,4.53
2022-11-26T12:05:26.674Z,5.00
2022-11-26T12:08:24.881Z,5.63
2022-11-26T12:11:17.075Z,4.93
2022-11-26T12:14:04.767Z,4.03
2022-11-26T12:16:38.160Z,5.87
2022-11-26T12:19:29.392Z,5.10
2022-11-26T12:22:08.661Z,4.73
2022-11-26T12:25:07.148Z,5.33
2022-11-26T12:27:55.669Z,4.30
2022-11-26T12:30:31.442Z,5.20
2022-11-26T12:33:25.616Z,4.67
2022-11-26T12:35:58.193Z,4.73
2022-11-26T12:38:37.005Z,5.07
2022-11-26T12:41:17.110Z,4.93
2022-11-26T12:44:14.553Z,4.50
2022-11-26T12:47:22.079Z,4.73
2022-11-26T12:50:15.442Z,5.07
2022-11-26T12:53:17.811Z,3.90
2022-11-26T12:56:16.668Z,4.47
2022-11-26T12:59:10.418Z,4.00
2022-11-26T13:01:37.948Z,3.37
2022-11-26T13:04:36.046Z,6.00
2022-11-26T13:07:21.444Z,4.30
2022-11-26T13:10:37.491Z,5.67
2022-11-26T13:13:29.633Z,4.33
2022-11-26T13:16:08.983Z,4.13
2022-11-26T13:18:46.889Z,4.00
2022-11-26T13:21:38.278Z,5.57
2022-11-26T13:24:18.846Z,5.60
2022-11-26T13:27:03.342Z,4.67
2022-11-26T13:29:59.793Z,4.17
2022-11-26T13:32:35.962Z,4.70
2022-11-26T13:36:02.526Z,4.10
2022-11-26T13:38:56.430Z,3.90
2022-11-26T13:41:52.216Z,4.57
2022-11-26T13:45:03.412Z,5.43
2022-11-26T13:47:43.904Z,4.80
2022-11-26T13:50:32.528Z,6.57
2022-11-26T13:53:12.187Z,6.30
2022-11-26T13:55:52.461Z,4.83
2022-11-26T13:58:48.069Z,5.47
2022-11-26T14:01:37.219Z,5.43
2022-11-26T14:04:35.109Z,4.77
2022-11-26T14:07:05.063Z,4.90
2022-11-26T14:09:44.479Z,5.60
2022-11-26T14:12:13.554Z,5.30
2022-11-26T14:14:42.885Z,4.67
2022-11-26T14:17:29.974Z,4.40
2022-11-26T14:20:00.888Z,4.63
2022-11-26T14:22:32.658Z,4.90
2022-11-26T14:25:08.025Z,5.40
2022-11-26T14:27:49.616Z,5.27
2022-11-26T14:30:26.476Z,5.47
2022-11-26T14:33:10.028Z,4.33
2022-11-26T14:35:41.554Z,5.67
2022-11-26T14:38:26.471Z,6.10
2022-11-26T14:41:01.348Z,6.13
2022-11-26T14:43:29.479Z,5.40
2022-11-26T14:46:16.650Z,5.20
2022-11-26T14:48:50.402Z,4.37
2022-11-26T14:51:24.614Z,5.10
2022-11-26T14:53:53.627Z,5.20
2022-11-26T14:56:24.734Z,4.00
2022-11-26T14:59:01.203Z,6.07
2022-11-26T15:01:32.504Z,5.87
2022-11-26T15:04:05.853Z,4.80
2022-11-26T15:06:43.035Z,3.93
2022-11-26T15:09:25.574Z,4.90
2022-11-26T15:12:16.746Z,3.80
2022-11-26T15:14:56.656Z,4.60
2022-11-26T15:17:25.941Z,5.50
2022-11-26T15:19:56.870Z,5.80
2022-11-26T15:22:42.573Z,4.70
2022-11-26T15:25:21.687Z,5.03
2022-11-26T15:28:19.877Z,4.67
2022-11-26T15:31:01.387Z,5.03
2022-11-26T15:33:47.271Z,5.33
2022-11-26T15:36:17.622Z,5.17
2022-11-26T15:39:10.220Z,4.30
2022-11-26T15:41:42.636Z,5.93
2022-11-26T15:44:24.601Z,6.77
2022-11-26T15:46:55.969Z,5.57
2022-11-26T15:49:38.964Z,4.97
2022-11-26T15:52:14.776Z,4.53
2022-11-26T15:57:42.340Z,5.30
2022-11-26T16:00:35.643Z,4.77
2022-11-26T16:03:05.068Z,4.40
2022-11-26T16:05:38.494Z,5.20
2022-11-26T16:08:28.099Z,5.47
2022-11-26T16:11:04.140Z,4.83
2022-11-26T16:13:35.759Z,5.00
2022-11-26T16:16:15.135Z,5.43
2022-11-26T16:19:14.146Z,5.57
2022-11-26T16:21:50.633Z,4.83
2022-11-26T16:24:32.559Z,4.33
2022-11-26T16:27:22.827Z,5.63
2022-11-26T16:29:49.998Z,5.97
2022-11-26T16:32:20.803Z,6.87
2022-11-26T16:34:47.876Z,7.03
2022-11-26T16:37:31.557Z,4.17
2022-11-26T16:40:13.779Z,5.23
2022-11-26T16:42:40.707Z,5.07
2022-11-26T16:45:09.843Z,4.60
2022-11-26T16:47:42.857Z,5.30
2022-11-26T16:50:23.603Z,5.00
2022-11-26T16:52:51.528Z,6.77
2022-11-26T16:55:23.350Z,5.23
2022-11-26T16:57:56.654Z,5.57
2022-11-26T17:00:26.238Z,5.40
2022-11-26T17:02:54.341Z,4.07
2022-11-26T17:05:22.674Z,5.30
2022-11-26T17:07:55.132Z,4.30
2022-11-26T17:10:25.454Z,4.17
2022-11-26T17:12:52.650Z,5.50
2022-11-26T17:15:19.679Z,4.80
2022-11-26T17:17:46.902Z,6.10
2022-11-26T17:20:28.171Z,3.03
2022-11-26T17:22:55.305Z,6.37
2022-11-26T17:25:22.264Z,6.00
2022-11-26T17:27:49.349Z,5.13
2022-11-26T17:30:22.077Z,6.77
2022-11-26T17:32:49.374Z,4.77
2022-11-26T17:35:17.250Z,5.63
2022-11-26T17:37:44.763Z,5.50
2022-11-26T17:40:23.898Z,6.27
2022-11-26T17:42:51.316Z,5.60
2022-11-26T17:45:19.146Z,4.97
2022-11-26T17:47:46.485Z,4.43
2022-11-26T17:50:26.560Z,6.13
2022-11-26T17:52:54.873Z,5.33
2022-11-26T17:55:26.162Z,3.37
2022-11-26T17:57:55.262Z,5.20
2022-11-26T18:00:28.499Z,5.23
2022-11-26T18:02:56.731Z,4.50
2022-11-26T18:05:24.775Z,5.37
2022-11-26T18:07:52.063Z,5.37
2022-11-26T18:10:22.188Z,7.43
2022-11-26T18:12:55.258Z,5.77
2022-11-26T18:15:43.101Z,3.63
2022-11-26T18:18:10.150Z,5.73
2022-11-26T18:20:37.264Z,5.90
2022-11-26T18:23:04.637Z,5.13
2022-11-26T18:25:34.555Z,7.53
2022-11-26T18:28:01.666Z,6.77
2022-11-26T18:30:30.599Z,6.30
2022-11-26T18:32:58.039Z,7.70
2022-11-26T18:35:25.080Z,6.17
2022-11-26T18:37:52.994Z,7.90
2022-11-26T18:40:20.148Z,6.70
2022-11-26T18:42:52.470Z,6.37
2022-11-26T18:45:20.055Z,6.67
2022-11-26T18:47:47.359Z,7.60
2022-11-26T18:50:17.077Z,5.97
2022-11-26T18:52:46.640Z,5.53
2022-11-26T18:55:15.097Z,7.50
2022-11-26T18:57:44.123Z,6.07
2022-11-26T19:00:11.880Z,6.30
2022-11-26T19:02:38.914Z,8.13
2022-11-26T19:05:06.598Z,7.30
2022-11-26T19:07:34.114Z,6.23
2022-11-26T19:10:01.113Z,5.87
2022-11-26T19:12:28.089Z,7.43
2022-11-26T19:14:55.095Z,5.33
2022-11-26T19:17:22.192Z,8.13
2022-11-26T19:19:49.228Z,7.97
2022-11-26T19:22:16.146Z,6.73
2022-11-26T19:24:43.129Z,6.97
2022-11-26T19:27:10.168Z,7.67
2022-11-26T19:29:37.330Z,6.67
2022-11-26T19:32:04.591Z,8.07
2022-11-26T19:34:35.956Z,7.80
2022-11-26T19:37:03.048Z,6.17
2022-11-26T19:39:30.170Z,7.27
2022-11-26T19:41:57.326Z,5.40
2022-11-26T19:44:24.548Z,6.30
2022-11-26T19:46:51.616Z,5.93
2022-11-26T19:49:18.665Z,9.00
2022-11-26T19:51:45.822Z,6.87
2022-11-26T19:54:12.798Z,7.23
2022-11-26T19:56:39.946Z,6.27
2022-11-26T19:59:07.003Z,7.20
2022-11-26T20:01:36.427Z,5.97
2022-11-26T20:04:07.542Z,5.17
2022-11-26T20:06:36.251Z,5.73
2022-11-26T20:09:06.784Z,7.63
2022-11-26T20:11:37.766Z,8.13
2022-11-26T20:14:10.591Z,7.17
2022-11-26T20:16:41.552Z,5.23
2022-11-26T20:19:10.333Z,8.57
2022-11-26T20:21:38.001Z,7.37
2022-11-26T20:24:14.567Z,7.10
2022-11-26T20:26:43.445Z,5.43
2022-11-26T20:29:15.177Z,6.83
2022-11-26T20:31:49.274Z,7.50
2022-11-26T20:34:22.998Z,5.77
2022-11-26T20:36:50.610Z,6.77
2022-11-26T20:39:21.102Z,6.13
2022-11-26T20:41:51.362Z,5.40
2022-11-26T20:44:20.036Z,5.60
2022-11-26T20:46:47.097Z,6.43
2022-11-26T20:49:16.043Z,5.33
2022-11-26T20:51:43.039Z,7.00
2022-11-26T20:54:10.250Z,7.27
2022-11-26T20:56:38.099Z,6.03
2022-11-26T20:59:05.160Z,6.37
2022-11-26T21:01:32.725Z,5.73
2022-11-26T21:03:59.960Z,5.83
2022-11-26T21:06:30.563Z,7.43
2022-11-26T21:09:03.890Z,6.37
2022-11-26T21:11:31.681Z,7.80
2022-11-26T21:14:01.751Z,8.63
2022-11-26T21:16:30.286Z,5.23
2022-11-26T21:18:57.941Z,7.83
2022-11-26T21:21:28.469Z,6.63
2022-11-26T21:23:58.933Z,5.80
2022-11-26T21:26:26.795Z,7.27
2022-11-26T21:28:57.392Z,8.00
2022-11-26T21:31:26.571Z,7.83
2022-11-26T21:34:04.570Z,7.37
2022-11-26T21:36:33.719Z,4.20
2022-11-26T21:39:01.513Z,6.80
2022-11-26T21:41:31.105Z,5.23
2022-11-26T21:44:02.449Z,6.57
2022-11-26T21:46:34.936Z,5.17
2022-11-26T21:49:06.288Z,4.97
2022-11-26T21:51:33.259Z,5.40
2022-11-26T21:54:00.214Z,5.90
2022-11-26T21:56:32.616Z,7.53
2022-11-26T21:59:01.511Z,5.80
2022-11-26T22:01:36.270Z,7.47
2022-11-26T22:04:14.616Z,5.67
2022-11-26T22:06:45.550Z,6.10
2022-11-26T22:09:14.722Z,4.97
2022-11-26T22:11:45.181Z,8.70
2022-11-26T22:14:16.375Z,7.73
2022-11-26T22:16:43.842Z,7.30
2022-11-26T22:19:10.957Z,5.40
2022-11-26T22:21:41.642Z,4.90
2022-11-26T22:24:15.852Z,6.97
2022-11-26T22:26:44.130Z,7.63
2022-11-26T22:29:17.587Z,5.83
2022-11-26T22:31:45.064Z,5.40
2022-11-26T22:34:15.540Z,7.37
2022-11-26T22:36:44.147Z,5.73
2022-11-26T22:39:17.355Z,7.20
2022-11-26T22:41:46.139Z,6.10
2022-11-26T22:44:15.632Z,6.53
2022-11-26T22:46:43.335Z,5.03
2022-11-26T22:49:17.803Z,5.87
2022-11-26T22:51:47.037Z,7.27
2022-11-26T22:54:15.986Z,6.13
2022-11-26T22:56:43.050Z,5.00
2022-11-26T22:59:14.180Z,6.77
2022-11-26T23:01:41.696Z,5.83
2022-11-26T23:04:10.725Z,5.43
2022-11-26T23:06:38.687Z,5.10
2022-11-26T23:09:08.191Z,5.97
2022-11-26T23:11:41.683Z,5.87
2022-11-26T23:14:11.976Z,7.10
2022-11-26T23:16:42.003Z,6.20
2022-11-26T23:19:10.001Z,7.40
2022-11-26T23:21:40.430Z,7.50
2022-11-26T23:24:08.622Z,5.77
2022-11-26T23:26:38.123Z,6.80
2022-11-26T23:29:06.785Z,7.17
2022-11-26T23:31:38.191Z,6.87
2022-11-26T23:34:06.216Z,8.20
2022-11-26T23:36:34.336Z,5.10
2022-11-26T23:39:04.503Z,7.27
2022-11-26T23:41:31.525Z,7.70
2022-11-26T23:43:58.800Z,7.40
2022-11-26T23:46:32.661Z,7.37
2022-11-26T23:48:59.759Z,6.33
2022-11-26T23:51:31.492Z,5.70
2022-11-26T23:53:58.505Z,8.30
2022-11-26T23:56:32.376Z,6.07
2022-11-26T23:59:02.813Z,6.83
